Terminal Aerodrome Forecast
Issued by NWS

Home | Current Version | Previous Version | Text Only | Print | Product List | Glossary On
Versions: 1 2 3 4 5 6 7 8 9 10 11 12
239
FTUS43 KUNR 301720
TAFGCC
TAF
KGCC 301720Z 3018/0118 04015G25KT P6SM SCT015 OVC025
      TEMPO 3018/3022 -SHRA
     FM302200 04015G25KT P6SM BKN035
     FM010200 VRB05KT P6SM SKC=

USA.gov is the U.S. government's official web portal to all federal, state and local government web resources and services.